Carisio -Volopuro-

IT-0770 · 皮埃蒙特, 意大利

使用的METAR站距离机场38 km。
罗盘
风向 的 风向 210° Carisio -Volopuro- 11/29
风: 4 kt, 2 beaufort

1 kt

4 kt
改变
0 ft 1.000 2.000 3.000 4.000 5.000
CAVOK
METAR LIMN 151655Z 21004KT CAVOK 31/18 Q1012

METAR Carisio -Volopuro- - IT-0770

Carisio -Volopuro-是,意大利中的超轻型飞机场。 该机场位于纬度45,44681和经度8,19099。 该机场有一条跑道: 11/29. 这个机场没有ICAO代码,我们使用IT-0770作为参考。 机场在Milano FIR中。

该航空气象观测是针对Cameri Air Base [MIL]在2024年7月15日 18:55, 当地时间进行的。

机场观察

风向为210°,速度为4 kt。

天气为CAVOK。这意味着在5.000 ft或MSA(最低安全高度)以下(以较高者为准)以下没有云。这也意味着没有观测到积雨云或高耸的积云,可见度为10 km 或者更多或更高。此外,不会有雾,降雨或其他重要天气。

温度和风寒是31 °C。 热指数为32。 露点为18 °C,相对湿度为46%。 海平面上的气压为1012 hPa (QNH)。

白天

今天,太阳从05:53升起,在21:12降落。 这适用于Carisio -Volopuro-,世界夏令时可能有所不同。 当地时间与世界标准时间之间的时差为+2 小时。 夏令时目前正在进行中。

公司介绍

我们没有关于这个机场的公司信息。

体会

到Vliegles.nl去找飞行课程,跳伞和其他飞行体验。 浏览页面,了解Carisio -Volopuro-附近所有可用的活动。 你也可以使用搜索功能来寻找你所在地附近的特定飞行课程、跳伞或其他飞行体验。

跑道

Id 标题 侧风 逆风 侧风 %
11/29 112°-292° 4 kt 99 %

逆风成分最大的方向会被突出显示,并用于横风计算。 这并不一定意味着这个方向在使用。

温度 & 天气

温度 31 °C
露点 18 °C
相对湿度 46%
热度指数 32 °C
Kp-index 1 (0-9)

白天

日出
05:51
中午
13:31
日落
21:11 (2:03)

小工具

你想在你的网站上有一个关于Carisio -Volopuro-的当前航空天气(METAR)的小部件吗?

显示HTML代码
报告变更